• Join FlightAware (Why Join?)
  • Login
  • US Flag GB Flag 
19:40 EDT


 

Airport Tracker/Info


-or-


 

Live Flight TrackerFlight Track Log ✈ SWA1618 ✈ 24-Aug-2013 ✈ KMDW - KMCO

Flight Track Log - Related Links

Times and Time Zones

All times are in EDT time to prevent confusion due to time zone crossing. See the SWA1618 flight status page for this flight to view local times or setup timezone preferences in your user account.

Time Position Orientation Groundspeed Altitude Reporting Facility
EDT Latitude Longitude Course Direction KTS MPH feet Rate Location/Type
08:16 41.7906 -87.8222 157° South 215 247 3,200  Level Chicago Center
08:17 41.7289 -87.8503 199° South 246 283 5,600 2,700 Climbing Chicago Center
08:18 41.6522 -87.8194 163° South 273 314 8,800 3,300 Climbing Chicago Center
08:19 41.5697 -87.7850 163° South 305 351 12,400 3,240 Climbing Chicago Center
08:20 41.4842 -87.7506 163° South 314 361 15,400 2,460 Climbing Chicago Center
08:21 41.5712 -87.6278 157° South  Level Estimated
08:21 41.3822 -87.7244 169° South 374 430 17,500  Level Chicago Center
08:22 41.2731 -87.7253 180° South 387 445 20,000 2,400 Climbing Chicago Center
08:23 41.1597 -87.7219 179° South 403 464 22,500 2,460 Climbing Chicago Center
08:24 41.0433 -87.7050 174° South 418 481 25,100 2,160 Climbing Chicago Center
08:25 40.9297 -87.6675 166° South 424 488 27,000 1,860 Climbing Chicago Center
08:26 40.7889 -87.6000 160° South 445 512 29,000 1,740 Climbing Chicago Center
08:27 40.6686 -87.5417 160° South 460 529 30,600 1,560 Climbing Chicago Center
08:28 40.5439 -87.4836 161° South 472 543 32,200 1,560 Climbing Chicago Center
08:29 40.4150 -87.4272 162° South 480 552 33,900 1,620 Climbing Chicago Center
08:30 40.2894 -87.3672 160° South 481 554 35,500 1,440 Climbing Chicago Center
08:31 40.1653 -87.3092 160° South 478 550 36,900 1,260 Climbing Chicago Center
08:32 40.0417 -87.2489 160° South 478 550 38,100 1,020 Climbing Chicago Center
08:33 39.9156 -87.1931 161° South 480 552 39,000 420 Climbing Chicago Center
08:34 39.7633 -87.1214 160° South 479 551 39,000  Level Indianapolis Center
08:35 39.6397 -87.0622 160° South 479 551 39,000  Level Indianapolis Center
08:36 39.5175 -87.0053 160° South 473 544 39,000  Level Indianapolis Center
08:37 39.3953 -86.9472 160° South 471 542 39,000  Level Indianapolis Center
08:38 39.2733 -86.8894 160° South 472 543 39,000  Level Indianapolis Center
08:39 39.1339 -86.8233 160° South 466 536 39,000  Level Indianapolis Center
08:40 39.0094 -86.7661 160° South 469 540 39,000  Level Indianapolis Center
08:41 38.8861 -86.7083 160° South 468 539 39,000  Level Indianapolis Center
08:42 38.7622 -86.6483 159° South 471 542 39,000  Level Indianapolis Center
08:43 38.6389 -86.5928 161° South 466 536 39,000  Level Indianapolis Center
08:44 38.5153 -86.5353 160° South 467 537 39,000  Level Indianapolis Center
08:45 38.3925 -86.4783 160° South 464 534 39,000  Level Indianapolis Center
08:46 38.2694 -86.4236 161° South 464 534 39,000  Level Indianapolis Center
08:47 38.1469 -86.3672 160° South 463 533 39,000  Level Indianapolis Center
08:48 38.0256 -86.3128 161° South 460 529 39,000  Level Indianapolis Center
08:49 37.9047 -86.2561 160° South 459 528 39,000  Level Indianapolis Center
08:51 37.7811 -86.2014 161° South 458 527 39,000  Level Indianapolis Center
08:52 37.6639 -86.1497 161° South 456 525 39,000  Level Indianapolis Center
08:53 37.5386 -86.0936 160° South 460 529 39,000  Level Indianapolis Center
08:54 37.4186 -86.0394 160° South 458 527 39,000  Level Indianapolis Center
08:55 37.2961 -85.9847 160° South 462 532 39,000  Level Indianapolis Center
08:56 37.1733 -85.9297 160° South 466 536 39,000  Level Indianapolis Center
08:57 37.0497 -85.8758 161° South 466 536 39,000  Level Indianapolis Center
08:58 36.9039 -85.8122 161° South 470 541 39,000  Level Indianapolis Center
08:59 36.7811 -85.7578 160° South 465 535 39,000  Level Indianapolis Center
09:00 36.6619 -85.7061 161° South 461 531 39,000  Level Indianapolis Center
09:01 36.5389 -85.6531 161° South 466 536 39,000  Level Indianapolis Center
09:02 36.4156 -85.5986 160° South 471 542 39,000  Level Indianapolis Center
09:03 36.2922 -85.5450 161° South 472 543 39,000  Level Indianapolis Center
09:04 36.1703 -85.4925 161° South 467 537 39,000  Level Indianapolis Center
09:04 36.0711 -85.4542 163° South 462 532 39,000  Level Atlanta Center
09:05 35.9506 -85.4033 161° South 462 532 39,000  Level Atlanta Center
09:06 35.8261 -85.3525 162° South 462 532 39,000  Level Atlanta Center
09:07 35.7036 -85.2994 161° South 462 532 39,000  Level Atlanta Center
09:08 35.5808 -85.2467 161° South 462 532 39,000  Level Atlanta Center
09:09 35.4606 -85.1939 160° South 462 532 39,000  Level Atlanta Center
09:10 35.3400 -85.1436 161° South 462 532 39,000  Level Atlanta Center
09:11 35.3442 -85.1439 161° South  Level FlightAware Approximate
09:11 35.2153 -85.0911 161° South 462 532 39,000  Level Atlanta Center
09:12 35.0944 -85.0414 161° South 462 532 39,000  Level Atlanta Center
09:13 34.9719 -84.9892 161° South 462 532 39,000  Level Atlanta Center
09:14 34.8511 -84.9397 161° South 462 532 39,000  Level Atlanta Center
09:15 34.7306 -84.8906 160° South 462 532 39,000  Level Atlanta Center
09:16 34.7349 -84.8896 160° South  Level FlightAware Approximate
09:17 34.5017 -84.7900 160° South 456 525 39,000  Level Atlanta Center
09:18 34.3789 -84.7411 162° South 461 531 39,000  Level Atlanta Center
09:19 34.2558 -84.6897 161° South 461 531 39,000  Level Atlanta Center
09:20 34.1164 -84.6361 162° South 466 536 39,000  Level Atlanta Center
09:21 33.9933 -84.5875 162° South 466 536 39,000  Level Atlanta Center
09:22 33.8706 -84.5392 162° South 466 536 39,000  Level Atlanta Center
09:23 33.7517 -84.4861 160° South 466 536 39,000  Level Atlanta Center
09:24 33.6267 -84.4381 162° South 460 529 39,000  Level Atlanta Center
09:25 33.5142 -84.3900 160° South 460 529 39,000  Level Atlanta Center
09:26 33.3931 -84.3400 161° South 460 529 39,000  Level Atlanta Center
09:27 33.2722 -84.2897 161° South 460 529 39,000  Level Atlanta Center
09:28 33.1511 -84.2397 161° South 460 529 39,000  Level Atlanta Center
09:29 33.0322 -84.1900 161° South 460 529 39,000  Level Atlanta Center
09:30 32.9114 -84.1403 161° South 460 529 39,000  Level Atlanta Center
09:31 32.7903 -84.0883 160° South 460 529 39,000  Level Atlanta Center
09:32 32.6733 -84.0389 160° South 460 529 39,000  Level Atlanta Center
09:33 32.5522 -83.9919 162° South 460 529 39,000  Level Atlanta Center
09:34 32.4333 -83.9428 161° South 460 529 39,000  Level Atlanta Center
09:35 32.3122 -83.8939 161° South 460 529 39,000  Level Atlanta Center
09:37 32.0922 -83.8025 161° South 439 505 39,000  Level Jacksonville Center
09:38 31.9717 -83.7522 161° South 444 511 39,000  Level Jacksonville Center
09:39 31.8633 -83.7072 161° South 449 517 39,000  Level Jacksonville Center
09:40 31.7425 -83.6622 162° South 454 522 39,000  Level Jacksonville Center
09:41 31.6028 -83.6025 160° South 473 544 39,000 -480 Level Jacksonville Center
09:42 31.4842 -83.5578 162° South 480 552 38,100 -960 Descending Jacksonville Center
09:43 31.3653 -83.5106 161° South 468 539 37,100 -900 Descending Jacksonville Center
09:44 31.2569 -83.4686 162° South 462 532 36,400 -900 Descending Jacksonville Center
09:45 31.1361 -83.4217 162° South 457 526 35,400 -1,020 Descending Jacksonville Center
09:46 31.0194 -83.3581 155° Southeast 463 533 34,400 -960 Descending Jacksonville Center
09:47 30.9047 -83.2847 151° Southeast 468 539 33,500 -1,200 Descending Jacksonville Center
09:48 30.7944 -83.2119 150° Southeast 468 539 32,100 -2,280 Descending Jacksonville Center
09:49 30.6817 -83.1414 152° Southeast 462 532 29,000 -2,580 Descending Jacksonville Center
09:50 30.5733 -83.0639 148° Southeast 456 525 27,000 -1,020 Descending Jacksonville Center
09:51 30.4753 -82.9650 139° Southeast 461 531 27,000 -180 Level Jacksonville Center
09:52 30.3792 -82.8661 138° Southeast 461 531 26,700 -660 Descending Jacksonville Center
09:53 30.2831 -82.7650 138° Southeast 466 536 25,700 -900 Descending Jacksonville Center
09:54 30.1892 -82.6692 139° Southeast 466 536 25,000 -360 Descending Jacksonville Center
09:55 30.0950 -82.5781 140° Southeast 459 528 25,000  Level Jacksonville Center
09:56 30.0028 -82.4800 137° Southeast 454 522 25,000  Level Jacksonville Center
09:57 29.8939 -82.4133 152° Southeast 449 517 25,000  Level Jacksonville Center
09:58 29.7808 -82.3231 145° Southeast 449 517 25,000 -540 Level Jacksonville Center
09:59 29.6886 -82.2519 146° Southeast 449 517 24,000 -1,080 Descending Jacksonville Center
10:00 29.5861 -82.1736 146° Southeast 449 517 22,900 -1,080 Descending Jacksonville Center
10:01 29.4833 -82.1006 148° Southeast 444 511 21,900 -1,440 Descending Jacksonville Center
10:02 29.3725 -82.0608 163° South 409 471 20,100 -2,040 Descending Jacksonville Center
10:03 29.2678 -82.0283 165° South 409 471 17,900 -2,340 Descending Jacksonville Center
10:04 29.1733 -81.9650 150° Southeast 401 461 15,500 -2,400 Descending Jacksonville Center
10:05 29.0853 -81.8969 146° Southeast 390 449 13,100 -1,680 Descending Jacksonville Center
10:06 29.0033 -81.8361 147° Southeast 371 427 12,200 -600 Descending Jacksonville Center
10:07 28.9194 -81.7967 158° South 324 373 12,000 -300 Descending Jacksonville Center
10:08 28.8358 -81.7881 175° South 295 339 11,700 -780 Descending Jacksonville Center
10:09 28.7978 -81.7317 128° Southeast 237 273 10,500 -900 Descending Jacksonville Center
10:10 28.8033 -81.6439 86° East 234 269 10,000 -420 Descending Jacksonville Center
10:11 28.8131 -81.5703 81° East 239 275 9,700 -660 Descending Jacksonville Center
10:12 28.8081 -81.5064 95° East 218 251 8,700 -1,020 Descending Jacksonville Center
10:13 28.8033 -81.4450 95° East 204 235 7,700 -900 Descending Jacksonville Center
10:14 28.7736 -81.4003 127° Southeast 174 200 7,000 -1,020 Descending Jacksonville Center
10:15 28.7167 -81.3500 142° Southeast 194 223 5,500 -1,200 Descending Orlando TRACON
10:16 28.6833 -81.3167 139° Southeast 190 219 4,400 -1,080 Descending Orlando TRACON
10:17 28.6333 -81.2833 150° Southeast 182 209 3,400 -900 Descending Orlando TRACON
10:18 28.5833 -81.2833 180° South 183 211 2,700 -900 Descending Orlando TRACON
10:19 28.5333 -81.2833 180° South 179 206 1,700 -900 Descending Orlando TRACON
10:20 28.4833 -81.2833 180° South 138 159 1,000 -720 Descending Orlando TRACON
10:22 28.4294 -81.3090 218° Southwest  Level Estimated
10:29 28.4294 -81.3090 24° Northeast  Level Estimated
10:30 28.4294 -81.3090 24° Northeast  Level Estimated
10:31 28.4294 -81.3090 24° Northeast  Level Estimated
10:32 28.4294 -81.3090 24° Northeast  Level Estimated
10:33 28.4294 -81.3090 24° Northeast  Level Estimated